Jeanie G — WDB2354 — position and weather

sailwx.info

Track history (hours):
 
Tides and Currents Weather Stations Pressure Air Temp Water Temp Dewpoint Dewpoint Depression Visibility Wind Speed Wind Dir Waves Ship Positions

Jeanie G

Owner: MARTIN OPERATING PARTNERSHIP LP, VIDOR, TX. More information available from US FCC via Universal Licensing System and Coast Guard Vessel Documentation Center.

Last reported at 2015-Jan-30 04:33 UTC. Time now 2015-Jan-30 04:58 UTC.
Position N 29°40' W 091°06'.

MMSI: 366875010.

Date/timePositionNaut miles runAvg speedWind from/ knotsBaromVisibWave heightAir tempDewpointWater temp
2015-Jan-30 04:33N 29°40' W 091°06'0 0.0
2015-Jan-30 03:33N 29°40' W 091°06'0 0.0
2015-Jan-30 02:33N 29°40' W 091°06'0 0.0
2015-Jan-30 01:33N 29°40' W 091°06'1 1.1
2015-Jan-30 00:33N 29°39' W 091°06'3 2.8
2015-Jan-29 23:33N 29°37' W 091°04'3 3.0
2015-Jan-29 22:33N 29°37' W 091°00'3 3.2
2015-Jan-29 21:33N 29°35' W 090°58'3 3.2
2015-Jan-29 20:33N 29°33' W 090°55'23 2.3
2015-Jan-29 10:08N 29°33' W 090°28'0 0.0
2015-Jan-29 09:32N 29°33' W 090°28'0 0.2
2015-Jan-29 08:26N 29°33' W 090°27'1 1.1
2015-Jan-29 07:33N 29°33' W 090°26'2 2.3
2015-Jan-29 06:33N 29°33' W 090°23'3 3.1
2015-Jan-29 05:33N 29°36' W 090°22'3 3.3
2015-Jan-29 04:31N 29°39' W 090°19'7 3.4
2015-Jan-29 02:22N 29°41' W 090°11'9 3.1
2015-Jan-28 23:17N 29°48' W 090°04'9 2.4
2015-Jan-28 19:33N 29°56' W 089°58'0 0.0
2015-Jan-28 18:33N 29°56' W 089°58'0 0.0
2015-Jan-28 17:32N 29°56' W 089°58'0 0.0
2015-Jan-28 16:33N 29°56' W 089°58'0 0.0
2015-Jan-28 15:32N 29°56' W 089°58'0 0.0
2015-Jan-28 14:32N 29°56' W 089°58'0 0.0
2015-Jan-28 13:32N 29°56' W 089°58'0 0.0
2015-Jan-28 12:31N 29°56' W 089°58'0 0.0
2015-Jan-28 11:12N 29°56' W 089°58'0 0.0
2015-Jan-28 10:33N 29°56' W 089°58'0 0.0
2015-Jan-28 09:33N 29°56' W 089°58'2 0.2
2015-Jan-28 00:07N 29°56' W 090°00'0 0.0
2015-Jan-27 19:18N 29°56' W 090°00'0 0.1
2015-Jan-27 17:05N 29°56' W 090°00'0 0.0
2015-Jan-27 16:13N 29°56' W 090°00'0 0.0
2015-Jan-27 15:22N 29°56' W 090°00'0 0.0
2015-Jan-27 14:15N 29°56' W 090°00'0 0.1
2015-Jan-27 12:12N 29°56' W 090°00'0 0.0
2015-Jan-27 11:30N 29°56' W 090°00'0 0.0
2015-Jan-27 10:31N 29°56' W 090°00'0 0.0
2015-Jan-27 08:27N 29°56' W 090°00'0 0.0
2015-Jan-27 07:13N 29°56' W 090°00'0 0.0
2015-Jan-27 06:31N 29°56' W 090°00'0 0.0
2015-Jan-26 03:20N 29°56' W 090°00'0 0.0
2015-Jan-26 00:19N 29°56' W 090°00'0 0.0
2015-Jan-25 23:27N 29°56' W 090°00'0 0.0
2015-Jan-25 22:24N 29°56' W 090°00'0 0.0
2015-Jan-24 21:31N 29°56' W 090°00'0 0.0
2015-Jan-24 20:29N 29°56' W 090°00'0 0.0
2015-Jan-24 19:33N 29°56' W 090°00'0 0.0
2015-Jan-24 18:32N 29°56' W 090°00'0 0.0
2015-Jan-24 17:08N 29°56' W 090°00'0 0.0
2015-Jan-24 16:32N 29°56' W 090°00'0 0.0
2015-Jan-24 13:14N 29°56' W 090°00'0 0.0
2015-Jan-24 12:31N 29°56' W 090°00'0 0.1
2015-Jan-24 11:33N 29°56' W 090°00'0 0.0
2015-Jan-24 10:33N 29°56' W 090°00'0 0.0
2015-Jan-24 09:32N 29°56' W 090°00'0 0.0
2015-Jan-24 08:31N 29°56' W 090°00'0 0.0
2015-Jan-24 07:33N 29°56' W 090°00'0 0.0
2015-Jan-24 06:32N 29°56' W 090°00'0 0.0
2015-Jan-24 05:33N 29°56' W 090°00'0 0.0
2015-Jan-24 04:32N 29°56' W 090°00'0 0.0
2015-Jan-24 03:34N 29°56' W 090°00'0 0.0
2015-Jan-24 02:32N 29°56' W 090°00'0 0.0
2015-Jan-24 01:30N 29°56' W 090°00'0 0.1
2015-Jan-24 00:32N 29°56' W 090°00'0 0.0
2015-Jan-23 23:32N 29°56' W 090°00'0 0.0
2015-Jan-23 05:21N 29°56' W 090°00'0 0.0
2015-Jan-23 04:26N 29°56' W 090°00'0 0.0
2015-Jan-23 03:27N 29°56' W 090°00'0 0.0
2015-Jan-23 02:33N 29°56' W 090°00'0 0.0
2015-Jan-23 01:16N 29°56' W 090°00'0 0.0
2015-Jan-23 00:33N 29°56' W 090°00'0 0.0
2015-Jan-22 23:33N 29°56' W 090°00'0 0.0
2015-Jan-22 22:32N 29°56' W 090°00'0 0.0
2015-Jan-22 21:31N 29°56' W 090°00'0 0.0
2015-Jan-22 20:32N 29°56' W 090°00'0 0.0
2015-Jan-22 19:33N 29°56' W 090°00'0 0.0
2015-Jan-22 18:33N 29°56' W 090°00'0 0.0
2015-Jan-22 17:32N 29°56' W 090°00'0 0.0
2015-Jan-22 16:33N 29°56' W 090°00'0 0.0
2015-Jan-22 15:29N 29°56' W 090°00'0 0.1
2015-Jan-22 14:19N 29°56' W 089°60'0 0.0
2015-Jan-22 00:24N 29°56' W 090°00'0 0.0
2015-Jan-21 23:27N 29°56' W 090°00'0 0.0
2015-Jan-21 22:50N 29°56' W 090°00'0 0.0
2015-Jan-21 22:46N 29°56' W 090°00'0 0.0
2015-Jan-21 22:29N 29°56' W 090°00'0 0.0
2015-Jan-21 21:33N 29°56' W 090°00'0 0.0
2015-Jan-21 20:33N 29°56' W 090°00'0 0.0
2015-Jan-21 19:30N 29°56' W 090°00'0 0.0
2015-Jan-21 18:31N 29°56' W 090°00'0 0.0
2015-Jan-21 17:31N 29°56' W 090°00'0 0.0
2015-Jan-21 16:32N 29°56' W 090°00'0 0.0
2015-Jan-21 15:33N 29°56' W 090°00'0 0.0
2015-Jan-21 14:33N 29°56' W 090°00'0 0.0
2015-Jan-21 13:32N 29°56' W 090°00'0 0.0
2015-Jan-21 12:30N 29°56' W 090°00'0 0.0
2015-Jan-21 11:31N 29°56' W 090°00'0 0.0
2015-Jan-21 10:25N 29°56' W 090°00'0 0.0
2015-Jan-21 03:05N 29°56' W 090°00'3 5.4
2015-Jan-21 02:30N 29°57' W 090°04'4 0.4
2015-Jan-20 16:17N 29°55' W 090°08'4 5.0
2015-Jan-20 15:32N 29°56' W 090°04'3 2.8
2015-Jan-20 14:21N 29°56' W 090°00'0 0.0
2015-Jan-20 13:29N 29°56' W 090°00'0 0.0
2015-Jan-20 12:23N 29°56' W 090°00'0 0.0
2015-Jan-20 11:32N 29°56' W 090°00'0 0.0
2015-Jan-20 10:32N 29°56' W 090°00'0 0.0
2015-Jan-20 09:33N 29°56' W 090°00'0 0.0
2015-Jan-20 08:29N 29°56' W 090°00'0 0.0
2015-Jan-20 07:29N 29°56' W 090°00'0 0.0
2015-Jan-20 06:21N 29°56' W 090°00'0 0.0
2015-Jan-20 05:32N 29°56' W 090°00'  
Track history (hours):
 
Tides and Currents Weather Stations Pressure Air Temp Water Temp Dewpoint Dewpoint Depression Visibility Wind Speed Wind Dir Waves Ship Positions

Jeanie G

Owner: MARTIN OPERATING PARTNERSHIP LP, VIDOR, TX. More information available from US FCC via Universal Licensing System and Coast Guard Vessel Documentation Center.

Last reported at 2015-Jan-30 04:33 UTC. Time now 2015-Jan-30 04:58 UTC.
Position N 29°40' W 091°06'.

MMSI: 366875010.

Date/timePositionNaut miles runAvg speedWind from/ knotsBaromVisibWave heightAir tempDewpointWater temp
2015-Jan-30 04:33N 29°40' W 091°06'0 0.0
2015-Jan-30 03:33N 29°40' W 091°06'0 0.0
2015-Jan-30 02:33N 29°40' W 091°06'0 0.0
2015-Jan-30 01:33N 29°40' W 091°06'1 1.1
2015-Jan-30 00:33N 29°39' W 091°06'3 2.8
2015-Jan-29 23:33N 29°37' W 091°04'3 3.0
2015-Jan-29 22:33N 29°37' W 091°00'3 3.2
2015-Jan-29 21:33N 29°35' W 090°58'3 3.2
2015-Jan-29 20:33N 29°33' W 090°55'23 2.3
2015-Jan-29 10:08N 29°33' W 090°28'0 0.0
2015-Jan-29 09:32N 29°33' W 090°28'0 0.2
2015-Jan-29 08:26N 29°33' W 090°27'1 1.1
2015-Jan-29 07:33N 29°33' W 090°26'2 2.3
2015-Jan-29 06:33N 29°33' W 090°23'3 3.1
2015-Jan-29 05:33N 29°36' W 090°22'3 3.3
2015-Jan-29 04:31N 29°39' W 090°19'7 3.4
2015-Jan-29 02:22N 29°41' W 090°11'9 3.1
2015-Jan-28 23:17N 29°48' W 090°04'9 2.4
2015-Jan-28 19:33N 29°56' W 089°58'0 0.0
2015-Jan-28 18:33N 29°56' W 089°58'0 0.0
2015-Jan-28 17:32N 29°56' W 089°58'0 0.0
2015-Jan-28 16:33N 29°56' W 089°58'0 0.0
2015-Jan-28 15:32N 29°56' W 089°58'0 0.0
2015-Jan-28 14:32N 29°56' W 089°58'0 0.0
2015-Jan-28 13:32N 29°56' W 089°58'0 0.0
2015-Jan-28 12:31N 29°56' W 089°58'0 0.0
2015-Jan-28 11:12N 29°56' W 089°58'0 0.0
2015-Jan-28 10:33N 29°56' W 089°58'0 0.0
2015-Jan-28 09:33N 29°56' W 089°58'2 0.2
2015-Jan-28 00:07N 29°56' W 090°00'0 0.0
2015-Jan-27 19:18N 29°56' W 090°00'0 0.1
2015-Jan-27 17:05N 29°56' W 090°00'0 0.0
2015-Jan-27 16:13N 29°56' W 090°00'0 0.0
2015-Jan-27 15:22N 29°56' W 090°00'0 0.0
2015-Jan-27 14:15N 29°56' W 090°00'0 0.1
2015-Jan-27 12:12N 29°56' W 090°00'0 0.0
2015-Jan-27 11:30N 29°56' W 090°00'0 0.0
2015-Jan-27 10:31N 29°56' W 090°00'0 0.0
2015-Jan-27 08:27N 29°56' W 090°00'0 0.0
2015-Jan-27 07:13N 29°56' W 090°00'0 0.0
2015-Jan-27 06:31N 29°56' W 090°00'0 0.0
2015-Jan-26 03:20N 29°56' W 090°00'0 0.0
2015-Jan-26 00:19N 29°56' W 090°00'0 0.0
2015-Jan-25 23:27N 29°56' W 090°00'0 0.0
2015-Jan-25 22:24N 29°56' W 090°00'0 0.0
2015-Jan-24 21:31N 29°56' W 090°00'0 0.0
2015-Jan-24 20:29N 29°56' W 090°00'0 0.0
2015-Jan-24 19:33N 29°56' W 090°00'0 0.0
2015-Jan-24 18:32N 29°56' W 090°00'0 0.0
2015-Jan-24 17:08N 29°56' W 090°00'0 0.0
2015-Jan-24 16:32N 29°56' W 090°00'0 0.0
2015-Jan-24 13:14N 29°56' W 090°00'0 0.0
2015-Jan-24 12:31N 29°56' W 090°00'0 0.1
2015-Jan-24 11:33N 29°56' W 090°00'0 0.0
2015-Jan-24 10:33N 29°56' W 090°00'0 0.0
2015-Jan-24 09:32N 29°56' W 090°00'0 0.0
2015-Jan-24 08:31N 29°56' W 090°00'0 0.0
2015-Jan-24 07:33N 29°56' W 090°00'0 0.0
2015-Jan-24 06:32N 29°56' W 090°00'0 0.0
2015-Jan-24 05:33N 29°56' W 090°00'0 0.0
2015-Jan-24 04:32N 29°56' W 090°00'0 0.0
2015-Jan-24 03:34N 29°56' W 090°00'0 0.0
2015-Jan-24 02:32N 29°56' W 090°00'0 0.0
2015-Jan-24 01:30N 29°56' W 090°00'0 0.1
2015-Jan-24 00:32N 29°56' W 090°00'0 0.0
2015-Jan-23 23:32N 29°56' W 090°00'0 0.0
2015-Jan-23 05:21N 29°56' W 090°00'0 0.0
2015-Jan-23 04:26N 29°56' W 090°00'0 0.0
2015-Jan-23 03:27N 29°56' W 090°00'0 0.0
2015-Jan-23 02:33N 29°56' W 090°00'0 0.0
2015-Jan-23 01:16N 29°56' W 090°00'0 0.0
2015-Jan-23 00:33N 29°56' W 090°00'0 0.0
2015-Jan-22 23:33N 29°56' W 090°00'0 0.0
2015-Jan-22 22:32N 29°56' W 090°00'0 0.0
2015-Jan-22 21:31N 29°56' W 090°00'0 0.0
2015-Jan-22 20:32N 29°56' W 090°00'0 0.0
2015-Jan-22 19:33N 29°56' W 090°00'0 0.0
2015-Jan-22 18:33N 29°56' W 090°00'0 0.0
2015-Jan-22 17:32N 29°56' W 090°00'0 0.0
2015-Jan-22 16:33N 29°56' W 090°00'0 0.0
2015-Jan-22 15:29N 29°56' W 090°00'0 0.1
2015-Jan-22 14:19N 29°56' W 089°60'0 0.0
2015-Jan-22 00:24N 29°56' W 090°00'0 0.0
2015-Jan-21 23:27N 29°56' W 090°00'0 0.0
2015-Jan-21 22:50N 29°56' W 090°00'0 0.0
2015-Jan-21 22:46N 29°56' W 090°00'0 0.0
2015-Jan-21 22:29N 29°56' W 090°00'0 0.0
2015-Jan-21 21:33N 29°56' W 090°00'0 0.0
2015-Jan-21 20:33N 29°56' W 090°00'0 0.0
2015-Jan-21 19:30N 29°56' W 090°00'0 0.0
2015-Jan-21 18:31N 29°56' W 090°00'0 0.0
2015-Jan-21 17:31N 29°56' W 090°00'0 0.0
2015-Jan-21 16:32N 29°56' W 090°00'0 0.0
2015-Jan-21 15:33N 29°56' W 090°00'0 0.0
2015-Jan-21 14:33N 29°56' W 090°00'0 0.0
2015-Jan-21 13:32N 29°56' W 090°00'0 0.0
2015-Jan-21 12:30N 29°56' W 090°00'0 0.0
2015-Jan-21 11:31N 29°56' W 090°00'0 0.0
2015-Jan-21 10:25N 29°56' W 090°00'0 0.0
2015-Jan-21 03:05N 29°56' W 090°00'3 5.4
2015-Jan-21 02:30N 29°57' W 090°04'4 0.4
2015-Jan-20 16:17N 29°55' W 090°08'4 5.0
2015-Jan-20 15:32N 29°56' W 090°04'3 2.8
2015-Jan-20 14:21N 29°56' W 090°00'0 0.0
2015-Jan-20 13:29N 29°56' W 090°00'0 0.0
2015-Jan-20 12:23N 29°56' W 090°00'0 0.0
2015-Jan-20 11:32N 29°56' W 090°00'0 0.0
2015-Jan-20 10:32N 29°56' W 090°00'0 0.0
2015-Jan-20 09:33N 29°56' W 090°00'0 0.0
2015-Jan-20 08:29N 29°56' W 090°00'0 0.0
2015-Jan-20 07:29N 29°56' W 090°00'0 0.0
2015-Jan-20 06:21N 29°56' W 090°00'0 0.0
2015-Jan-20 05:32N 29°56' W 090°00'  

Dump ship's entire track history